createdAt,value
2022-09-21T00:00:53.920Z,21.6
2022-09-21T00:01:56.741Z,21.5
2022-09-21T00:02:59.532Z,21.6
2022-09-21T00:04:02.189Z,21.6
2022-09-21T00:05:04.116Z,21.7
2022-09-21T00:06:06.062Z,21.6
2022-09-21T00:07:07.414Z,21.6
2022-09-21T00:08:09.892Z,21.6
2022-09-21T00:09:12.381Z,21.7
2022-09-21T00:10:14.872Z,21.6
2022-09-21T00:11:17.382Z,21.7
2022-09-21T00:12:19.860Z,21.6
2022-09-21T00:13:22.325Z,21.5
2022-09-21T00:14:24.504Z,21.7
2022-09-21T00:15:26.984Z,21.6
2022-09-21T00:16:29.638Z,21.6
2022-09-21T00:17:31.975Z,21.7
2022-09-21T00:18:34.596Z,21.7
2022-09-21T00:19:37.082Z,21.7
2022-09-21T00:20:39.545Z,21.7
2022-09-21T00:21:42.017Z,21.7
2022-09-21T00:22:44.210Z,21.6
2022-09-21T00:23:46.691Z,21.6
2022-09-21T00:24:48.959Z,21.7
2022-09-21T00:25:51.454Z,21.8
2022-09-21T00:26:53.953Z,21.7
2022-09-21T00:27:56.421Z,21.7
2022-09-21T00:28:58.910Z,21.7
2022-09-21T00:30:01.376Z,21.7
2022-09-21T00:31:03.289Z,21.8
2022-09-21T00:32:05.864Z,21.8
2022-09-21T00:33:08.656Z,21.7
2022-09-21T00:34:10.852Z,21.6
2022-09-21T00:35:13.342Z,21.7
2022-09-21T00:36:15.540Z,21.7
2022-09-21T00:37:18.014Z,21.7
2022-09-21T00:38:20.486Z,21.8
2022-09-21T00:39:22.684Z,21.7
2022-09-21T00:40:25.360Z,21.8
2022-09-21T00:41:28.062Z,21.8
2022-09-21T00:42:30.578Z,21.8
2022-09-21T00:43:33.060Z,21.8
2022-09-21T00:44:35.234Z,21.8
2022-09-21T00:45:37.548Z,21.7
2022-09-21T00:46:39.719Z,21.8
2022-09-21T00:47:41.942Z,21.7
2022-09-21T00:48:44.414Z,21.7
2022-09-21T00:49:46.908Z,21.9
2022-09-21T00:50:49.390Z,21.8
2022-09-21T00:51:51.867Z,21.7
2022-09-21T00:52:54.332Z,21.8
2022-09-21T00:53:56.534Z,21.8
2022-09-21T00:54:59.002Z,21.8
2022-09-21T00:56:01.496Z,21.8
2022-09-21T00:57:04.100Z,21.7
2022-09-21T00:58:06.326Z,21.7
2022-09-21T00:59:08.804Z,21.9
2022-09-21T01:00:11.281Z,21.8
2022-09-21T01:01:13.255Z,21.8
2022-09-21T01:02:15.792Z,21.9
2022-09-21T01:03:18.491Z,21.7
2022-09-21T01:04:20.979Z,21.8
2022-09-21T01:05:23.172Z,21.9
2022-09-21T01:06:25.121Z,22
2022-09-21T01:07:27.603Z,21.8
2022-09-21T01:08:29.530Z,22
2022-09-21T01:09:31.725Z,21.9
2022-09-21T01:10:34.200Z,21.8
2022-09-21T01:11:36.685Z,21.8
2022-09-21T01:12:38.886Z,22
2022-09-21T01:13:41.153Z,21.8
2022-09-21T01:14:43.639Z,21.8
2022-09-21T01:15:46.105Z,21.9
2022-09-21T01:16:48.583Z,21.9
2022-09-21T01:17:51.071Z,21.9
2022-09-21T01:18:53.271Z,21.8
2022-09-21T01:19:55.749Z,21.9
2022-09-21T01:20:58.215Z,21.8
2022-09-21T01:22:00.715Z,21.8
2022-09-21T01:23:03.198Z,22
2022-09-21T01:24:05.694Z,21.9
2022-09-21T01:25:07.893Z,21.9
2022-09-21T01:26:10.378Z,21.9
2022-09-21T01:27:12.865Z,21.9
2022-09-21T01:28:15.105Z,21.9
2022-09-21T01:29:17.611Z,21.7
2022-09-21T01:30:19.811Z,21.9
2022-09-21T01:31:22.102Z,22
2022-09-21T01:32:24.753Z,21.9
2022-09-21T01:33:27.223Z,21.9
2022-09-21T01:34:29.698Z,21.9
2022-09-21T01:35:31.891Z,21.9
2022-09-21T01:36:34.101Z,21.9
2022-09-21T01:37:36.391Z,21.9
2022-09-21T01:38:38.872Z,21.8
2022-09-21T01:39:41.342Z,22
2022-09-21T01:40:44.161Z,22
2022-09-21T01:41:46.889Z,21.9
2022-09-21T01:42:49.390Z,21.9
2022-09-21T01:43:51.881Z,21.9
2022-09-21T01:44:54.474Z,21.9
2022-09-21T01:45:56.747Z,22
2022-09-21T01:46:58.958Z,21.9
2022-09-21T01:48:01.428Z,21.9
2022-09-21T01:49:03.630Z,21.9
2022-09-21T01:50:06.084Z,21.9
2022-09-21T01:51:08.554Z,22
2022-09-21T01:52:10.754Z,22
2022-09-21T01:53:12.971Z,22
2022-09-21T01:54:15.441Z,21.9
2022-09-21T01:55:17.968Z,22
2022-09-21T01:56:20.489Z,21.9
2022-09-21T01:57:22.971Z,21.9
2022-09-21T01:58:25.455Z,21.9
2022-09-21T01:59:28.043Z,22
2022-09-21T02:00:30.642Z,22
2022-09-21T02:01:33.137Z,21.9
2022-09-21T02:02:35.600Z,22
2022-09-21T02:03:38.075Z,22
2022-09-21T02:04:40.270Z,22
2022-09-21T02:05:42.465Z,21.9
2022-09-21T02:06:59.598Z,22
2022-09-21T02:08:01.785Z,21.9
2022-09-21T02:09:04.271Z,22
2022-09-21T02:10:06.742Z,22.1
2022-09-21T02:11:08.660Z,22
2022-09-21T02:12:10.558Z,22
2022-09-21T02:13:18.639Z,21.9
2022-09-21T02:14:21.195Z,22
2022-09-21T02:15:23.715Z,22
2022-09-21T02:16:26.027Z,22
2022-09-21T02:17:28.666Z,21.9
2022-09-21T02:18:31.138Z,22
2022-09-21T02:19:33.604Z,22
2022-09-21T02:20:35.803Z,22
2022-09-21T02:21:38.268Z,21.9
2022-09-21T02:22:40.758Z,22
2022-09-21T02:23:42.962Z,22
2022-09-21T02:24:45.455Z,22.1
2022-09-21T02:25:47.930Z,22
2022-09-21T02:26:50.406Z,22
2022-09-21T02:27:52.879Z,21.9
2022-09-21T02:28:55.451Z,22
2022-09-21T02:29:57.832Z,21.9
2022-09-21T02:31:00.434Z,22
2022-09-21T02:32:02.915Z,22
2022-09-21T02:33:05.097Z,22
2022-09-21T02:34:07.644Z,22
2022-09-21T02:35:10.239Z,21.9
2022-09-21T02:36:12.725Z,22
2022-09-21T02:37:15.207Z,22.1
2022-09-21T02:38:17.407Z,22.1
2022-09-21T02:39:19.877Z,22
2022-09-21T02:40:22.486Z,22.1
2022-09-21T02:41:25.013Z,22
2022-09-21T02:42:27.488Z,21.9
2022-09-21T02:43:29.964Z,22
2022-09-21T02:44:32.442Z,22
2022-09-21T02:45:34.957Z,22
2022-09-21T02:46:37.271Z,22
2022-09-21T02:47:40.030Z,22
2022-09-21T02:48:42.522Z,22
2022-09-21T02:49:44.720Z,22
2022-09-21T02:50:47.199Z,21.9
2022-09-21T02:51:49.672Z,22
2022-09-21T02:52:52.218Z,22
2022-09-21T02:53:54.695Z,22.1
2022-09-21T02:54:56.592Z,22
2022-09-21T02:55:59.078Z,22
2022-09-21T02:57:01.564Z,22
2022-09-21T02:58:03.766Z,22
2022-09-21T02:59:06.542Z,22
2022-09-21T03:00:09.075Z,22.1
2022-09-21T03:01:11.611Z,21.9
2022-09-21T03:02:13.967Z,22
2022-09-21T03:03:16.755Z,22
2022-09-21T03:04:18.973Z,22
2022-09-21T03:05:21.157Z,22
2022-09-21T03:06:23.622Z,22
2022-09-21T03:07:25.803Z,21.9
2022-09-21T03:08:28.269Z,22
2022-09-21T03:09:30.769Z,21.9
2022-09-21T03:10:32.949Z,22
2022-09-21T03:11:35.155Z,21.8
2022-09-21T03:12:37.625Z,21.9
2022-09-21T03:13:39.824Z,21.9
2022-09-21T03:14:41.451Z,21.9
2022-09-21T03:15:43.819Z,21.8
2022-09-21T03:16:46.473Z,21.9
2022-09-21T03:17:49.048Z,21.9
2022-09-21T03:18:51.547Z,21.7
2022-09-21T03:19:54.019Z,21.8
2022-09-21T03:20:56.485Z,21.7
2022-09-21T03:21:58.660Z,21.8
2022-09-21T03:23:00.857Z,21.8
2022-09-21T03:24:03.342Z,21.8
2022-09-21T03:25:05.809Z,21.7
2022-09-21T03:26:08.002Z,21.6
2022-09-21T03:27:10.522Z,21.7
2022-09-21T03:28:12.414Z,21.6
2022-09-21T03:29:14.887Z,21.8
2022-09-21T03:30:17.363Z,21.7
2022-09-21T03:31:19.932Z,21.6
2022-09-21T03:32:22.284Z,21.6
2022-09-21T03:33:24.771Z,21.7
2022-09-21T03:34:27.275Z,21.7
2022-09-21T03:35:29.665Z,21.6
2022-09-21T03:36:32.284Z,21.6
2022-09-21T03:38:39.824Z,21.6
2022-09-21T03:39:42.321Z,21.5
2022-09-21T03:40:44.837Z,21.5
2022-09-21T03:41:47.331Z,21.7
2022-09-21T03:42:49.896Z,21.6
2022-09-21T03:43:52.385Z,21.5
2022-09-21T03:44:53.764Z,21.6
2022-09-21T03:45:56.362Z,21.5
2022-09-21T03:46:59.086Z,21.5
2022-09-21T03:48:01.789Z,21.6
2022-09-21T03:49:04.474Z,21.5
2022-09-21T03:51:11.984Z,21.7
2022-09-21T03:52:14.478Z,21.6
2022-09-21T03:53:16.976Z,21.5
2022-09-21T03:54:19.467Z,21.5
2022-09-21T03:55:21.943Z,21.6
2022-09-21T03:56:24.186Z,21.6
2022-09-21T03:57:26.672Z,21.4
2022-09-21T03:58:29.209Z,21.6
2022-09-21T03:59:31.407Z,21.5
2022-09-21T04:00:33.898Z,21.6
2022-09-21T04:01:35.621Z,21.5
2022-09-21T04:02:38.417Z,21.5
2022-09-21T04:03:41.096Z,21.5
2022-09-21T04:04:43.643Z,21.6
2022-09-21T04:05:46.194Z,21.5
2022-09-21T04:06:48.378Z,21.5
2022-09-21T04:07:50.855Z,21.5
2022-09-21T04:08:53.036Z,21.5
2022-09-21T04:09:55.509Z,21.6
2022-09-21T04:10:57.987Z,21.5
2022-09-21T04:12:00.456Z,21.5
2022-09-21T04:13:02.394Z,21.5
2022-09-21T04:14:04.322Z,21.5
2022-09-21T04:15:06.512Z,21.4
2022-09-21T04:16:08.796Z,21.5
2022-09-21T04:17:11.594Z,21.4
2022-09-21T04:18:14.381Z,21.6
2022-09-21T04:19:16.908Z,21.5
2022-09-21T04:20:19.538Z,21.5
2022-09-21T04:21:22.101Z,21.5
2022-09-21T04:22:24.303Z,21.5
2022-09-21T04:23:26.868Z,21.4
2022-09-21T04:24:29.053Z,21.4
2022-09-21T04:25:30.981Z,21.4
2022-09-21T04:26:33.468Z,21.4
2022-09-21T04:27:35.941Z,21.5
2022-09-21T04:28:38.406Z,21.5
2022-09-21T04:29:40.947Z,21.5
2022-09-21T04:30:43.263Z,21.4
2022-09-21T04:31:45.978Z,21.5
2022-09-21T04:32:48.450Z,21.4
2022-09-21T04:33:50.359Z,21.5
2022-09-21T04:34:52.893Z,21.4
2022-09-21T04:35:55.161Z,21.5
2022-09-21T04:36:57.661Z,21.4
2022-09-21T04:38:00.145Z,21.5
2022-09-21T04:39:02.613Z,21.4
2022-09-21T04:40:04.656Z,21.4
2022-09-21T04:41:07.441Z,21.4
2022-09-21T04:42:09.383Z,21.4
2022-09-21T04:43:11.580Z,21.5
2022-09-21T04:44:13.788Z,21.5
2022-09-21T04:45:16.019Z,21.5
2022-09-21T04:46:18.593Z,21.5
2022-09-21T04:47:21.423Z,21.5
2022-09-21T04:48:23.622Z,21.3
2022-09-21T04:49:25.278Z,21.5
2022-09-21T04:50:27.773Z,21.4
2022-09-21T04:51:29.717Z,21.5
2022-09-21T04:52:31.944Z,21.5
2022-09-21T04:53:34.421Z,21.3
2022-09-21T04:54:36.883Z,21.3
2022-09-21T04:55:39.358Z,21.4
2022-09-21T04:56:41.821Z,21.5
2022-09-21T04:57:44.022Z,21.4
2022-09-21T04:58:46.489Z,21.4
2022-09-21T04:59:48.971Z,21.5
2022-09-21T05:00:51.512Z,21.5
2022-09-21T05:01:54.313Z,21.5
2022-09-21T05:02:56.537Z,21.4
2022-09-21T05:03:58.899Z,21.4
2022-09-21T05:05:01.576Z,21.4
2022-09-21T05:06:04.197Z,21.4
2022-09-21T05:07:06.700Z,21.4
2022-09-21T05:08:09.217Z,21.5
2022-09-21T05:09:11.408Z,21.4
2022-09-21T05:10:13.879Z,21.4
2022-09-21T05:11:16.375Z,21.4
2022-09-21T05:12:18.590Z,21.4
2022-09-21T05:13:20.784Z,21.4
2022-09-21T05:14:23.271Z,21.5
2022-09-21T05:15:25.860Z,21.4
2022-09-21T05:16:28.378Z,21.4
2022-09-21T05:17:30.849Z,21.4
2022-09-21T05:18:33.334Z,21.4
2022-09-21T05:19:35.818Z,21.3
2022-09-21T05:20:38.292Z,21.4
2022-09-21T05:21:40.496Z,21.3
2022-09-21T05:22:42.726Z,21.4
2022-09-21T05:23:45.346Z,21.3
2022-09-21T05:24:47.818Z,21.4
2022-09-21T05:25:50.041Z,21.5
2022-09-21T05:26:52.534Z,21.4
2022-09-21T05:27:54.729Z,21.5
2022-09-21T05:28:57.205Z,21.3
2022-09-21T05:29:59.825Z,21.3
2022-09-21T05:32:07.347Z,21.3
2022-09-21T05:33:09.842Z,21.3
2022-09-21T05:34:12.313Z,21.3
2022-09-21T05:35:14.519Z,21.4
2022-09-21T05:36:16.715Z,21.4
2022-09-21T05:37:18.909Z,21.3
2022-09-21T05:38:21.130Z,21.4
2022-09-21T05:39:23.393Z,21.3
2022-09-21T05:40:26.005Z,21.3
2022-09-21T05:41:28.503Z,21.3
2022-09-21T05:42:30.982Z,21.3
2022-09-21T05:43:33.469Z,21.3
2022-09-21T05:44:35.944Z,21.3
2022-09-21T05:45:37.998Z,21.3
2022-09-21T05:46:40.303Z,21.2
2022-09-21T05:47:42.803Z,21.4
2022-09-21T05:48:45.008Z,21.3
2022-09-21T05:49:47.184Z,21.2
2022-09-21T05:50:49.088Z,21.4
2022-09-21T05:51:51.578Z,21.4
2022-09-21T05:52:53.517Z,21.3
2022-09-21T05:53:55.743Z,21.4
2022-09-21T05:54:58.037Z,21.4
2022-09-21T05:55:59.968Z,21.3
2022-09-21T05:57:02.142Z,21.4
2022-09-21T05:58:04.632Z,21.3
2022-09-21T05:59:07.114Z,21.3
2022-09-21T06:00:09.598Z,21.3
2022-09-21T06:01:12.202Z,21.3
2022-09-21T06:02:14.866Z,21.3
2022-09-21T06:03:18.344Z,21.3
2022-09-21T06:04:20.849Z,21.3
2022-09-21T06:05:23.346Z,21.3
2022-09-21T06:06:25.515Z,21.4
2022-09-21T06:07:27.706Z,21.3
2022-09-21T06:08:30.234Z,21.3
2022-09-21T06:09:32.480Z,21.3
2022-09-21T06:10:34.740Z,21.3
2022-09-21T06:11:36.939Z,21.3
2022-09-21T06:12:39.418Z,21.3
2022-09-21T06:13:41.896Z,21.3
2022-09-21T06:14:44.369Z,21.3
2022-09-21T06:15:46.289Z,21.3
2022-09-21T06:16:48.321Z,21.3
2022-09-21T06:17:51.075Z,21.3
2022-09-21T06:18:53.560Z,21.3
2022-09-21T06:19:55.764Z,21.2
2022-09-21T06:20:58.261Z,21.3
2022-09-21T06:22:00.763Z,21.2
2022-09-21T06:23:03.054Z,21.4
2022-09-21T06:24:05.545Z,21.3
2022-09-21T06:25:07.757Z,21.3
2022-09-21T06:26:10.273Z,21.3
2022-09-21T06:27:12.745Z,21.3
2022-09-21T06:28:15.229Z,21.3
2022-09-21T06:29:17.691Z,21.2
2022-09-21T06:30:20.166Z,21.3
2022-09-21T06:31:22.656Z,21.3
2022-09-21T06:32:24.828Z,21.3
2022-09-21T06:33:26.748Z,21.2
2022-09-21T06:34:28.962Z,21.4
2022-09-21T06:35:31.430Z,21.3
2022-09-21T06:36:33.611Z,21.2
2022-09-21T06:37:35.810Z,21.2
2022-09-21T06:38:37.748Z,21.2
2022-09-21T06:39:39.700Z,21.2
2022-09-21T06:40:42.347Z,21.3
2022-09-21T06:41:44.834Z,21.3
2022-09-21T06:42:47.022Z,21.3
2022-09-21T06:43:49.222Z,21.3
2022-09-21T06:44:51.709Z,21.3
2022-09-21T06:45:54.030Z,21.4
2022-09-21T06:46:56.797Z,21.3
2022-09-21T06:47:59.270Z,21.3
2022-09-21T06:49:01.772Z,21.3
2022-09-21T06:50:03.993Z,21.3
2022-09-21T06:51:06.477Z,21.2
2022-09-21T06:52:08.688Z,21.3
2022-09-21T06:53:10.617Z,21.3
2022-09-21T06:54:12.796Z,21.3
2022-09-21T06:55:15.005Z,21.3
2022-09-21T06:56:17.201Z,21.3
2022-09-21T06:57:19.699Z,21.2
2022-09-21T06:58:22.171Z,21.2
2022-09-21T06:59:24.650Z,21.3
2022-09-21T07:00:26.680Z,21.3
2022-09-21T07:01:29.172Z,21.3
2022-09-21T07:02:32.114Z,21.3
2022-09-21T07:03:34.586Z,21.3
2022-09-21T07:04:37.058Z,21.2
2022-09-21T07:05:38.980Z,21.3
2022-09-21T07:06:41.194Z,21.3
2022-09-21T07:07:43.688Z,21.2
2022-09-21T07:10:55.633Z,21.4
2022-09-21T07:11:58.168Z,21.2
2022-09-21T07:13:00.711Z,21.3
2022-09-21T07:14:02.611Z,21.2
2022-09-21T07:15:05.089Z,21.2
2022-09-21T07:16:07.425Z,21.3
2022-09-21T07:17:15.371Z,21.3
2022-09-21T07:18:15.557Z,21.3
2022-09-21T07:19:18.046Z,21.2
2022-09-21T07:20:20.271Z,21.3
2022-09-21T07:21:22.495Z,21.2
2022-09-21T07:22:24.809Z,21.3
2022-09-21T07:23:27.080Z,21.3
2022-09-21T07:24:29.310Z,21.2
2022-09-21T07:25:31.520Z,21.2
2022-09-21T07:26:33.992Z,21.2
2022-09-21T07:27:36.219Z,21.3
2022-09-21T07:28:38.746Z,21.2
2022-09-21T07:29:41.230Z,21.3
2022-09-21T07:30:43.423Z,21.3
2022-09-21T07:31:45.563Z,21.3
2022-09-21T07:32:48.069Z,21.4
2022-09-21T07:33:50.547Z,21.2
2022-09-21T07:34:53.016Z,21.2
2022-09-21T07:35:55.495Z,21.2
2022-09-21T07:36:57.749Z,21.3
2022-09-21T07:38:00.281Z,21.2
2022-09-21T07:39:02.764Z,21.3
2022-09-21T07:40:05.086Z,21.2
2022-09-21T07:41:07.909Z,21.3
2022-09-21T07:42:10.112Z,21.3
2022-09-21T07:43:12.629Z,21.2
2022-09-21T07:44:15.181Z,21.3
2022-09-21T07:45:17.650Z,21.3
2022-09-21T07:46:20.354Z,21.1
2022-09-21T07:47:22.316Z,21.3
2022-09-21T07:48:24.506Z,21.2
2022-09-21T07:49:26.419Z,21.2
2022-09-21T07:50:28.908Z,21.3
2022-09-21T07:51:31.393Z,21.2
2022-09-21T07:52:33.925Z,21.3
2022-09-21T07:53:36.130Z,21.2
2022-09-21T07:54:38.338Z,21.2
2022-09-21T07:55:40.270Z,21.2
2022-09-21T07:56:42.481Z,21.3
2022-09-21T07:57:44.969Z,21.2
2022-09-21T07:58:47.501Z,21.3
2022-09-21T07:59:50.007Z,21.2
2022-09-21T08:00:51.788Z,21.2
2022-09-21T08:01:54.161Z,21.3
2022-09-21T08:02:56.606Z,21.1
2022-09-21T08:03:58.918Z,21.2
2022-09-21T08:05:00.614Z,21.3
2022-09-21T08:06:03.155Z,21.2
2022-09-21T08:07:05.585Z,21.2
2022-09-21T08:08:08.159Z,21.3
2022-09-21T08:09:10.395Z,21.2
2022-09-21T08:10:12.861Z,21.2
2022-09-21T08:11:15.072Z,21.2
2022-09-21T08:12:17.557Z,21.2
2022-09-21T08:13:19.481Z,21.2
2022-09-21T08:16:32.422Z,21.3
2022-09-21T08:17:35.523Z,21.2
2022-09-21T08:18:38.541Z,21.2
2022-09-21T08:19:41.696Z,21.3
2022-09-21T08:20:43.621Z,21.3
2022-09-21T08:21:46.109Z,21.3
2022-09-21T08:22:48.053Z,21.1
2022-09-21T08:23:50.287Z,21.2
2022-09-21T08:24:52.754Z,21.3
2022-09-21T08:25:54.971Z,21.2
2022-09-21T08:26:57.463Z,21.2
2022-09-21T08:27:59.661Z,21.2
2022-09-21T08:29:01.859Z,21.3
2022-09-21T08:30:04.367Z,21.3
2022-09-21T08:31:06.927Z,21.2
2022-09-21T08:32:09.415Z,21.3
2022-09-21T08:33:15.381Z,21.2
2022-09-21T08:34:17.879Z,21.3
2022-09-21T08:35:20.083Z,21.1
2022-09-21T08:36:22.629Z,21.2
2022-09-21T08:37:24.842Z,21.2
2022-09-21T08:38:27.321Z,21.2
2022-09-21T08:39:29.944Z,21.2
2022-09-21T08:40:32.659Z,21.2
2022-09-21T08:41:35.471Z,21.1
2022-09-21T08:42:37.937Z,21.2
2022-09-21T08:43:40.428Z,21.2
2022-09-21T08:44:42.916Z,21.1
2022-09-21T08:45:44.859Z,21.1
2022-09-21T08:46:47.565Z,21.1
2022-09-21T08:47:50.006Z,21.2
2022-09-21T08:48:52.497Z,21.3
2022-09-21T08:49:54.716Z,21.1
2022-09-21T08:50:56.923Z,21.1
2022-09-21T08:51:59.539Z,21.2
2022-09-21T08:53:02.385Z,21.2
2022-09-21T08:54:05.161Z,21.2
2022-09-21T08:55:07.890Z,21.2
2022-09-21T08:56:10.087Z,21.2
2022-09-21T08:57:12.038Z,21.2
2022-09-21T08:58:14.520Z,21.3
2022-09-21T08:59:16.996Z,21.2
2022-09-21T09:00:19.169Z,21.3
2022-09-21T09:01:21.863Z,21.2
2022-09-21T09:02:23.992Z,21.2
2022-09-21T09:03:26.757Z,21.3
2022-09-21T09:04:28.998Z,21.1
2022-09-21T09:05:31.547Z,21.2
2022-09-21T09:06:34.023Z,21.2
2022-09-21T09:07:36.504Z,21.3
2022-09-21T09:08:38.723Z,21.1
2022-09-21T09:09:40.662Z,21.3
2022-09-21T09:10:43.162Z,21.3
2022-09-21T09:11:45.640Z,21.1
2022-09-21T09:12:48.143Z,21.2
2022-09-21T09:13:50.621Z,21.2
2022-09-21T09:14:53.096Z,21.3
2022-09-21T09:15:55.699Z,21.2
2022-09-21T09:16:58.448Z,21.3
2022-09-21T09:18:00.662Z,21
2022-09-21T09:19:03.158Z,21.2
2022-09-21T09:20:05.591Z,21.2
2022-09-21T09:21:08.102Z,21.2
2022-09-21T09:22:10.874Z,21.2
2022-09-21T09:23:13.083Z,21.2
2022-09-21T09:24:15.297Z,21.2
2022-09-21T09:25:17.488Z,21.2
2022-09-21T09:26:19.430Z,21.3
2022-09-21T09:27:21.930Z,21.3
2022-09-21T09:28:24.098Z,21.1
2022-09-21T09:29:26.600Z,21.2
2022-09-21T09:30:29.078Z,21.2
2022-09-21T09:31:31.233Z,21.2
2022-09-21T09:32:33.653Z,21.2
2022-09-21T09:33:36.128Z,21.2
2022-09-21T09:34:38.625Z,21.1
2022-09-21T09:35:41.134Z,21.2
2022-09-21T09:37:48.347Z,21
2022-09-21T09:38:50.254Z,21.1
2022-09-21T09:39:52.467Z,21
2022-09-21T09:40:54.943Z,21.1
2022-09-21T09:41:57.177Z,21.1
2022-09-21T09:44:04.368Z,21.1
2022-09-21T09:45:06.571Z,21.2
2022-09-21T09:47:14.042Z,21.1
2022-09-21T09:48:16.579Z,21.1
2022-09-21T09:49:18.832Z,21.1
2022-09-21T09:50:21.358Z,21.2
2022-09-21T09:51:24.061Z,21.2
2022-09-21T09:52:26.609Z,21.1
2022-09-21T09:53:29.074Z,21.2
2022-09-21T09:54:31.583Z,21.2
2022-09-21T09:55:33.788Z,21.1
2022-09-21T09:56:36.262Z,21.2
2022-09-21T09:57:38.770Z,21.2
2022-09-21T09:58:40.984Z,21.2
2022-09-21T09:59:43.452Z,21.1
2022-09-21T10:00:45.934Z,21.2
2022-09-21T10:01:48.592Z,21.1
2022-09-21T10:02:51.038Z,21.1
2022-09-21T10:03:53.403Z,21.2
2022-09-21T10:04:55.742Z,21.2
2022-09-21T10:05:58.246Z,21
2022-09-21T10:07:00.748Z,21.2
2022-09-21T10:08:03.283Z,21.2
2022-09-21T10:09:05.512Z,21.2
2022-09-21T10:10:07.712Z,21.2
2022-09-21T10:11:09.935Z,21.3
2022-09-21T10:12:12.416Z,21.2
2022-09-21T10:13:14.642Z,21.2
2022-09-21T10:14:17.146Z,21.1
2022-09-21T10:15:19.642Z,21.2
2022-09-21T10:16:22.085Z,21.2
2022-09-21T10:17:24.700Z,21.2
2022-09-21T10:18:26.912Z,21.2
2022-09-21T10:19:29.111Z,21.2
2022-09-21T10:20:31.371Z,21.1
2022-09-21T10:21:33.607Z,21.1
2022-09-21T10:22:36.099Z,21.2
2022-09-21T10:23:38.621Z,21.2
2022-09-21T10:24:40.526Z,21.1
2022-09-21T10:25:42.997Z,21.2
2022-09-21T10:26:45.470Z,21.1
2022-09-21T10:27:47.946Z,21.2
2022-09-21T10:28:50.179Z,21.2
2022-09-21T10:29:52.124Z,21.2
2022-09-21T10:30:54.723Z,21.2
2022-09-21T10:31:57.374Z,21.2
2022-09-21T10:32:59.877Z,21.2
2022-09-21T10:34:02.355Z,21.2
2022-09-21T10:35:04.848Z,21.1
2022-09-21T10:36:07.048Z,21.2
2022-09-21T10:37:09.033Z,21.2
2022-09-21T10:38:11.550Z,21.1
2022-09-21T10:39:13.814Z,21.1
2022-09-21T10:40:16.413Z,21.2
2022-09-21T10:41:19.231Z,21.1
2022-09-21T10:42:21.151Z,21.1
2022-09-21T10:43:24.702Z,21.2
2022-09-21T10:44:28.084Z,21.1
2022-09-21T10:45:30.598Z,21.2
2022-09-21T10:46:32.952Z,21.2
2022-09-21T10:47:35.767Z,21.2
2022-09-21T10:48:37.959Z,21.1
2022-09-21T10:49:39.895Z,21.1
2022-09-21T10:50:42.423Z,21.1
2022-09-21T10:51:44.918Z,21.1
2022-09-21T10:52:48.011Z,21.2
2022-09-21T10:54:55.481Z,21.1
2022-09-21T10:57:02.980Z,21.1
2022-09-21T10:58:05.479Z,21.1
2022-09-21T10:59:07.957Z,21.2
2022-09-21T11:00:10.179Z,21.1
2022-09-21T11:01:12.775Z,21.1
2022-09-21T11:02:16.887Z,21.1
2022-09-21T11:03:19.300Z,21.2
2022-09-21T11:04:21.779Z,21.2
2022-09-21T11:05:24.275Z,21.1
2022-09-21T11:06:26.768Z,21.1
2022-09-21T11:07:29.239Z,21.2
2022-09-21T11:08:31.754Z,21.2
2022-09-21T11:09:34.233Z,21.3
2022-09-21T11:10:36.430Z,21.2
2022-09-21T11:11:38.929Z,21.3
2022-09-21T11:12:41.420Z,21.1
2022-09-21T11:13:43.914Z,21.2
2022-09-21T11:14:46.100Z,21.3
2022-09-21T11:15:48.754Z,21
2022-09-21T11:16:51.546Z,21.2
2022-09-21T11:17:54.013Z,21.3
2022-09-21T11:18:56.294Z,21.1
2022-09-21T11:19:59.064Z,21.2
2022-09-21T11:21:01.668Z,21.2
2022-09-21T11:22:03.945Z,21.2
2022-09-21T11:23:06.428Z,21.1
2022-09-21T11:24:09.027Z,21.3
2022-09-21T11:25:11.273Z,21.2
2022-09-21T11:26:13.222Z,21.2
2022-09-21T11:27:15.728Z,21.2
2022-09-21T11:28:17.919Z,21.1
2022-09-21T11:29:20.493Z,21.1
2022-09-21T11:30:22.843Z,21.1
2022-09-21T11:31:25.273Z,21.1
2022-09-21T11:32:27.562Z,21.1
2022-09-21T11:33:30.042Z,21.2
2022-09-21T11:34:32.524Z,21.2
2022-09-21T11:35:35.016Z,21.1
2022-09-21T11:36:36.933Z,21.2
2022-09-21T11:37:39.420Z,21.1
2022-09-21T11:38:43.913Z,21.2
2022-09-21T11:39:46.424Z,21.2
2022-09-21T11:40:48.912Z,21.2
2022-09-21T11:41:51.379Z,21.3
2022-09-21T11:42:53.322Z,21
2022-09-21T11:43:55.531Z,21.2
2022-09-21T11:45:02.232Z,21.2
2022-09-21T11:46:04.783Z,21
2022-09-21T11:47:07.490Z,21.2
2022-09-21T11:48:09.973Z,21.2
2022-09-21T11:49:12.453Z,21.2
2022-09-21T11:51:19.686Z,21.1
2022-09-21T11:52:21.952Z,21.2
2022-09-21T11:53:24.174Z,21.2
2022-09-21T11:54:26.354Z,21.2
2022-09-21T11:55:28.574Z,21.1
2022-09-21T11:56:31.076Z,21.3
2022-09-21T11:57:33.571Z,21.2
2022-09-21T11:58:35.807Z,21.1
2022-09-21T11:59:38.273Z,21.1
2022-09-21T12:00:40.487Z,21.1
2022-09-21T12:01:42.438Z,21.3
2022-09-21T12:02:45.403Z,21.1
2022-09-21T12:03:48.250Z,21.1
2022-09-21T12:04:50.479Z,21.1
2022-09-21T12:05:52.956Z,21.3
2022-09-21T12:06:55.177Z,21.2
2022-09-21T12:07:57.379Z,21.2
2022-09-21T12:08:59.886Z,21.3
2022-09-21T12:10:02.417Z,21.2
2022-09-21T12:11:08.403Z,21.1
2022-09-21T12:12:10.924Z,21.2
2022-09-21T12:13:12.860Z,21.2
2022-09-21T12:14:15.108Z,21.2
2022-09-21T12:15:17.406Z,21.1
2022-09-21T12:16:20.246Z,21.1
2022-09-21T12:17:22.973Z,21.2
2022-09-21T12:18:25.496Z,21.2
2022-09-21T12:19:27.711Z,21.2
2022-09-21T12:20:29.918Z,21.1
2022-09-21T12:21:32.393Z,21.2
2022-09-21T12:22:34.887Z,21.1
2022-09-21T12:23:37.358Z,21.1
2022-09-21T12:24:39.594Z,21.2
2022-09-21T12:25:42.079Z,21.1
2022-09-21T12:26:44.590Z,21.3
2022-09-21T12:27:47.081Z,21.1
2022-09-21T12:28:48.984Z,21.1
2022-09-21T12:29:50.718Z,21.2
2022-09-21T12:30:56.292Z,21.2
2022-09-21T12:31:59.843Z,21.2
2022-09-21T12:33:02.053Z,21.3
2022-09-21T12:34:04.610Z,21.2
2022-09-21T12:35:07.654Z,21.2
2022-09-21T12:36:10.119Z,21.2
2022-09-21T12:37:12.632Z,21.1
2022-09-21T12:38:14.586Z,21.2
2022-09-21T12:39:16.803Z,21.2
2022-09-21T12:40:19.459Z,21.2
2022-09-21T12:41:21.486Z,21.2
2022-09-21T12:42:23.451Z,21.2
2022-09-21T12:43:25.966Z,21.1
2022-09-21T12:44:28.444Z,21.1
2022-09-21T12:45:30.438Z,21.2
2022-09-21T12:46:32.665Z,21.2
2022-09-21T12:47:35.614Z,21.1
2022-09-21T12:48:38.100Z,21.2
2022-09-21T12:49:40.615Z,21.2
2022-09-21T12:50:43.087Z,21.1
2022-09-21T12:51:45.009Z,21.1
2022-09-21T12:52:47.216Z,21.2
2022-09-21T12:53:51.434Z,21.2
2022-09-21T12:54:53.626Z,21.2
2022-09-21T12:55:56.151Z,21.2
2022-09-21T12:56:58.625Z,21.2
2022-09-21T12:59:06.128Z,21.2
2022-09-21T13:00:08.977Z,21.2
2022-09-21T13:01:11.422Z,21.3
2022-09-21T13:02:15.095Z,21.2
2022-09-21T13:03:18.595Z,21.2
2022-09-21T13:04:20.627Z,21.2
2022-09-21T13:05:23.117Z,21.3
2022-09-21T13:06:25.356Z,21.1
2022-09-21T13:07:27.551Z,21.2
2022-09-21T13:08:30.051Z,21.3
2022-09-21T13:09:32.534Z,21.1
2022-09-21T13:10:35.040Z,21.2
2022-09-21T13:11:37.007Z,21.1
2022-09-21T13:12:39.190Z,21.1
2022-09-21T13:13:41.399Z,21.2
2022-09-21T13:14:43.923Z,21.3
2022-09-21T13:15:46.138Z,21.3
2022-09-21T13:16:48.721Z,21.1
2022-09-21T13:17:51.054Z,21.3
2022-09-21T13:18:52.985Z,21.3
2022-09-21T13:19:55.644Z,21.1
2022-09-21T13:20:58.158Z,21.2
2022-09-21T13:22:00.376Z,21.2
2022-09-21T13:23:02.628Z,21.1
2022-09-21T13:24:04.863Z,21.1
2022-09-21T13:25:07.366Z,21.2
2022-09-21T13:26:09.845Z,21.2
2022-09-21T13:27:12.357Z,21.2
2022-09-21T13:28:14.557Z,21.2
2022-09-21T13:29:16.765Z,21.2
2022-09-21T13:30:19.279Z,21.1
2022-09-21T13:32:26.668Z,21.2
2022-09-21T13:33:29.409Z,21.1
2022-09-21T13:34:31.604Z,21.2
2022-09-21T13:35:33.826Z,21.1
2022-09-21T13:36:36.315Z,21.2
2022-09-21T13:37:38.788Z,21.1
2022-09-21T13:38:41.252Z,21.2
2022-09-21T13:39:43.740Z,21.1
2022-09-21T13:40:46.367Z,21.1
2022-09-21T13:42:54.021Z,21.2
2022-09-21T13:45:01.323Z,21.1
2022-09-21T13:46:03.737Z,21.1
2022-09-21T13:47:06.253Z,21.2
2022-09-21T13:48:08.741Z,21.2
2022-09-21T13:49:11.327Z,21.2
2022-09-21T13:50:13.825Z,21.3
2022-09-21T13:51:16.013Z,21.1
2022-09-21T13:52:18.519Z,21.1
2022-09-21T13:53:20.985Z,21.1
2022-09-21T13:54:23.490Z,21.1
2022-09-21T13:55:25.961Z,21.2
2022-09-21T13:56:28.190Z,21.1
2022-09-21T13:57:30.668Z,21.3
2022-09-21T13:58:32.876Z,21.2
2022-09-21T13:59:35.105Z,21.1
2022-09-21T14:00:37.700Z,21
2022-09-21T14:02:45.209Z,21.2
2022-09-21T14:03:47.968Z,21.1
2022-09-21T14:04:50.466Z,21.2
2022-09-21T14:05:52.671Z,21.2
2022-09-21T14:06:55.159Z,21.2
2022-09-21T14:07:57.660Z,21.1
2022-09-21T14:08:59.859Z,21.2
2022-09-21T14:10:01.799Z,21.1
2022-09-21T14:11:03.731Z,21.2
2022-09-21T14:12:06.221Z,21.2
2022-09-21T14:13:08.428Z,21.2
2022-09-21T14:14:10.639Z,21.2
2022-09-21T14:15:13.125Z,21.1
2022-09-21T14:16:15.712Z,21.2